sensor_id;sensor_type;location;lat;lon;timestamp;P1;durP1;ratioP1;P2;durP2;ratioP2
64903;SDS011;51401;48.882;12.598;2023-05-20T00:01:18;4.53;;;4.07;;
64903;SDS011;51401;48.882;12.598;2023-05-20T00:03:43;4.80;;;4.03;;
64903;SDS011;51401;48.882;12.598;2023-05-20T00:06:08;5.38;;;4.30;;
64903;SDS011;51401;48.882;12.598;2023-05-20T00:08:33;4.65;;;3.85;;
64903;SDS011;51401;48.882;12.598;2023-05-20T00:10:59;5.82;;;4.22;;
64903;SDS011;51401;48.882;12.598;2023-05-20T00:13:24;5.63;;;4.47;;
64903;SDS011;51401;48.882;12.598;2023-05-20T00:15:50;5.57;;;3.60;;
64903;SDS011;51401;48.882;12.598;2023-05-20T00:18:17;4.85;;;4.15;;
64903;SDS011;51401;48.882;12.598;2023-05-20T00:20:42;4.75;;;4.10;;
64903;SDS011;51401;48.882;12.598;2023-05-20T00:23:07;5.90;;;4.30;;
64903;SDS011;51401;48.882;12.598;2023-05-20T00:25:32;6.10;;;4.10;;
64903;SDS011;51401;48.882;12.598;2023-05-20T00:27:58;5.55;;;4.18;;
64903;SDS011;51401;48.882;12.598;2023-05-20T00:30:23;4.90;;;4.40;;
64903;SDS011;51401;48.882;12.598;2023-05-20T00:32:48;5.35;;;4.20;;
64903;SDS011;51401;48.882;12.598;2023-05-20T00:35:13;4.85;;;4.35;;
64903;SDS011;51401;48.882;12.598;2023-05-20T00:37:39;5.35;;;4.35;;
64903;SDS011;51401;48.882;12.598;2023-05-20T00:40:04;5.10;;;4.22;;
64903;SDS011;51401;48.882;12.598;2023-05-20T00:42:30;6.05;;;4.93;;
64903;SDS011;51401;48.882;12.598;2023-05-20T00:44:55;6.13;;;4.53;;
64903;SDS011;51401;48.882;12.598;2023-05-20T00:47:22;6.18;;;4.40;;
64903;SDS011;51401;48.882;12.598;2023-05-20T00:49:50;5.70;;;4.43;;
64903;SDS011;51401;48.882;12.598;2023-05-20T00:52:17;5.10;;;4.45;;
64903;SDS011;51401;48.882;12.598;2023-05-20T00:54:42;5.47;;;4.45;;
64903;SDS011;51401;48.882;12.598;2023-05-20T00:57:08;4.85;;;4.07;;
64903;SDS011;51401;48.882;12.598;2023-05-20T00:59:35;5.22;;;4.38;;
64903;SDS011;51401;48.882;12.598;2023-05-20T01:02:01;7.00;;;4.78;;
64903;SDS011;51401;48.882;12.598;2023-05-20T01:04:28;6.30;;;4.35;;
64903;SDS011;51401;48.882;12.598;2023-05-20T01:06:54;5.65;;;4.40;;
64903;SDS011;51401;48.882;12.598;2023-05-20T01:09:19;5.05;;;4.50;;
64903;SDS011;51401;48.882;12.598;2023-05-20T01:11:55;5.72;;;4.40;;
64903;SDS011;51401;48.882;12.598;2023-05-20T01:14:27;5.80;;;4.43;;
64903;SDS011;51401;48.882;12.598;2023-05-20T01:16:55;6.43;;;5.32;;
64903;SDS011;51401;48.882;12.598;2023-05-20T01:19:27;5.50;;;4.32;;
64903;SDS011;51401;48.882;12.598;2023-05-20T01:22:24;5.85;;;4.40;;
64903;SDS011;51401;48.882;12.598;2023-05-20T01:24:51;6.60;;;5.13;;
64903;SDS011;51401;48.882;12.598;2023-05-20T01:27:20;4.97;;;3.97;;
64903;SDS011;51401;48.882;12.598;2023-05-20T01:29:50;6.65;;;4.53;;
64903;SDS011;51401;48.882;12.598;2023-05-20T01:35:00;5.38;;;4.32;;
64903;SDS011;51401;48.882;12.598;2023-05-20T01:37:26;5.15;;;4.50;;
64903;SDS011;51401;48.882;12.598;2023-05-20T01:39:52;6.40;;;4.85;;
64903;SDS011;51401;48.882;12.598;2023-05-20T01:42:19;5.72;;;4.38;;
64903;SDS011;51401;48.882;12.598;2023-05-20T01:44:46;6.10;;;4.78;;
64903;SDS011;51401;48.882;12.598;2023-05-20T01:47:11;5.47;;;4.93;;
64903;SDS011;51401;48.882;12.598;2023-05-20T01:49:37;5.75;;;4.13;;
64903;SDS011;51401;48.882;12.598;2023-05-20T01:52:02;5.45;;;4.65;;
64903;SDS011;51401;48.882;12.598;2023-05-20T01:54:28;7.22;;;4.97;;
64903;SDS011;51401;48.882;12.598;2023-05-20T01:56:54;5.33;;;4.70;;
64903;SDS011;51401;48.882;12.598;2023-05-20T01:59:20;9.55;;;4.97;;
64903;SDS011;51401;48.882;12.598;2023-05-20T02:01:45;5.55;;;4.60;;
64903;SDS011;51401;48.882;12.598;2023-05-20T02:04:10;5.43;;;4.55;;
64903;SDS011;51401;48.882;12.598;2023-05-20T02:06:35;6.10;;;4.88;;
64903;SDS011;51401;48.882;12.598;2023-05-20T02:09:01;6.33;;;4.97;;
64903;SDS011;51401;48.882;12.598;2023-05-20T02:11:26;5.70;;;4.65;;
64903;SDS011;51401;48.882;12.598;2023-05-20T02:13:51;4.70;;;4.20;;
64903;SDS011;51401;48.882;12.598;2023-05-20T02:16:17;4.95;;;4.35;;
64903;SDS011;51401;48.882;12.598;2023-05-20T02:18:42;6.00;;;4.60;;
64903;SDS011;51401;48.882;12.598;2023-05-20T02:21:08;6.25;;;4.70;;
64903;SDS011;51401;48.882;12.598;2023-05-20T02:23:33;6.40;;;5.20;;
64903;SDS011;51401;48.882;12.598;2023-05-20T02:25:58;6.65;;;5.43;;
64903;SDS011;51401;48.882;12.598;2023-05-20T02:28:25;7.57;;;5.18;;
64903;SDS011;51401;48.882;12.598;2023-05-20T02:30:50;7.15;;;5.57;;
64903;SDS011;51401;48.882;12.598;2023-05-20T02:33:15;6.90;;;5.07;;
64903;SDS011;51401;48.882;12.598;2023-05-20T02:35:41;6.78;;;5.03;;
64903;SDS011;51401;48.882;12.598;2023-05-20T02:38:06;6.47;;;5.55;;
64903;SDS011;51401;48.882;12.598;2023-05-20T02:40:32;6.43;;;5.00;;
64903;SDS011;51401;48.882;12.598;2023-05-20T02:42:58;5.90;;;4.70;;
64903;SDS011;51401;48.882;12.598;2023-05-20T02:45:25;6.68;;;4.75;;
64903;SDS011;51401;48.882;12.598;2023-05-20T02:47:50;5.93;;;4.55;;
64903;SDS011;51401;48.882;12.598;2023-05-20T02:50:16;6.80;;;4.70;;
64903;SDS011;51401;48.882;12.598;2023-05-20T02:52:41;6.60;;;4.30;;
64903;SDS011;51401;48.882;12.598;2023-05-20T02:55:07;6.45;;;5.00;;
64903;SDS011;51401;48.882;12.598;2023-05-20T02:57:33;6.25;;;5.05;;
64903;SDS011;51401;48.882;12.598;2023-05-20T03:00:02;7.85;;;4.65;;
64903;SDS011;51401;48.882;12.598;2023-05-20T03:02:30;7.20;;;5.20;;
64903;SDS011;51401;48.882;12.598;2023-05-20T03:04:55;6.13;;;5.10;;
64903;SDS011;51401;48.882;12.598;2023-05-20T03:07:20;6.70;;;4.53;;
64903;SDS011;51401;48.882;12.598;2023-05-20T03:09:46;6.45;;;5.13;;
64903;SDS011;51401;48.882;12.598;2023-05-20T03:12:11;5.75;;;4.65;;
64903;SDS011;51401;48.882;12.598;2023-05-20T03:14:36;5.07;;;4.20;;
64903;SDS011;51401;48.882;12.598;2023-05-20T03:17:02;7.65;;;5.53;;
64903;SDS011;51401;48.882;12.598;2023-05-20T03:19:27;7.43;;;4.97;;
64903;SDS011;51401;48.882;12.598;2023-05-20T03:21:52;6.75;;;5.00;;
64903;SDS011;51401;48.882;12.598;2023-05-20T03:24:18;8.10;;;5.22;;
64903;SDS011;51401;48.882;12.598;2023-05-20T03:26:43;6.63;;;5.32;;
64903;SDS011;51401;48.882;12.598;2023-05-20T03:29:10;5.53;;;4.93;;
64903;SDS011;51401;48.882;12.598;2023-05-20T03:31:35;5.80;;;4.90;;
64903;SDS011;51401;48.882;12.598;2023-05-20T03:34:01;7.20;;;5.03;;
64903;SDS011;51401;48.882;12.598;2023-05-20T03:36:26;6.30;;;4.95;;
64903;SDS011;51401;48.882;12.598;2023-05-20T03:38:52;7.53;;;5.32;;
64903;SDS011;51401;48.882;12.598;2023-05-20T03:41:17;7.90;;;5.65;;
64903;SDS011;51401;48.882;12.598;2023-05-20T03:43:43;6.50;;;5.18;;
64903;SDS011;51401;48.882;12.598;2023-05-20T03:46:08;8.40;;;5.30;;
64903;SDS011;51401;48.882;12.598;2023-05-20T03:48:33;8.23;;;5.80;;
64903;SDS011;51401;48.882;12.598;2023-05-20T03:50:58;7.10;;;5.40;;
64903;SDS011;51401;48.882;12.598;2023-05-20T03:53:26;7.88;;;5.30;;
64903;SDS011;51401;48.882;12.598;2023-05-20T03:55:51;6.53;;;5.45;;
64903;SDS011;51401;48.882;12.598;2023-05-20T03:58:16;7.60;;;5.50;;
64903;SDS011;51401;48.882;12.598;2023-05-20T04:00:41;7.30;;;5.83;;
64903;SDS011;51401;48.882;12.598;2023-05-20T04:03:07;8.18;;;5.95;;
64903;SDS011;51401;48.882;12.598;2023-05-20T04:05:33;7.22;;;5.60;;
64903;SDS011;51401;48.882;12.598;2023-05-20T04:08:01;7.88;;;5.32;;
64903;SDS011;51401;48.882;12.598;2023-05-20T04:10:28;7.93;;;5.68;;
64903;SDS011;51401;48.882;12.598;2023-05-20T04:12:55;8.00;;;5.50;;
64903;SDS011;51401;48.882;12.598;2023-05-20T04:15:21;7.45;;;5.97;;
64903;SDS011;51401;48.882;12.598;2023-05-20T04:17:47;7.10;;;5.07;;
64903;SDS011;51401;48.882;12.598;2023-05-20T04:20:14;7.82;;;5.28;;
64903;SDS011;51401;48.882;12.598;2023-05-20T04:22:39;8.43;;;5.68;;
64903;SDS011;51401;48.882;12.598;2023-05-20T04:25:05;6.63;;;5.20;;
64903;SDS011;51401;48.882;12.598;2023-05-20T04:27:31;5.68;;;5.07;;
64903;SDS011;51401;48.882;12.598;2023-05-20T04:29:59;5.90;;;5.03;;
64903;SDS011;51401;48.882;12.598;2023-05-20T04:32:26;5.75;;;5.15;;
64903;SDS011;51401;48.882;12.598;2023-05-20T04:34:52;6.55;;;5.07;;
64903;SDS011;51401;48.882;12.598;2023-05-20T04:37:19;5.65;;;4.68;;
64903;SDS011;51401;48.882;12.598;2023-05-20T04:39:45;6.05;;;5.10;;
64903;SDS011;51401;48.882;12.598;2023-05-20T04:42:12;5.75;;;4.97;;
64903;SDS011;51401;48.882;12.598;2023-05-20T04:44:37;5.95;;;4.93;;
64903;SDS011;51401;48.882;12.598;2023-05-20T04:47:06;6.65;;;5.57;;
64903;SDS011;51401;48.882;12.598;2023-05-20T04:49:32;6.03;;;5.10;;
64903;SDS011;51401;48.882;12.598;2023-05-20T04:51:57;6.25;;;5.53;;
64903;SDS011;51401;48.882;12.598;2023-05-20T04:54:23;7.28;;;5.43;;
64903;SDS011;51401;48.882;12.598;2023-05-20T04:56:49;6.82;;;5.63;;
64903;SDS011;51401;48.882;12.598;2023-05-20T04:59:15;5.57;;;4.70;;
64903;SDS011;51401;48.882;12.598;2023-05-20T05:01:40;5.78;;;5.10;;
64903;SDS011;51401;48.882;12.598;2023-05-20T05:04:06;5.85;;;5.20;;
64903;SDS011;51401;48.882;12.598;2023-05-20T05:06:31;7.10;;;5.20;;
64903;SDS011;51401;48.882;12.598;2023-05-20T05:08:56;5.45;;;4.85;;
64903;SDS011;51401;48.882;12.598;2023-05-20T05:11:21;6.82;;;5.10;;
64903;SDS011;51401;48.882;12.598;2023-05-20T05:13:47;5.50;;;4.93;;
64903;SDS011;51401;48.882;12.598;2023-05-20T05:16:12;6.53;;;5.30;;
64903;SDS011;51401;48.882;12.598;2023-05-20T05:18:37;5.60;;;5.00;;
64903;SDS011;51401;48.882;12.598;2023-05-20T05:21:03;5.50;;;4.90;;
64903;SDS011;51401;48.882;12.598;2023-05-20T05:23:29;6.07;;;4.80;;
64903;SDS011;51401;48.882;12.598;2023-05-20T05:25:55;5.70;;;5.13;;
64903;SDS011;51401;48.882;12.598;2023-05-20T05:28:21;7.32;;;5.30;;
64903;SDS011;51401;48.882;12.598;2023-05-20T05:30:47;6.70;;;5.60;;
64903;SDS011;51401;48.882;12.598;2023-05-20T05:33:15;6.40;;;5.53;;
64903;SDS011;51401;48.882;12.598;2023-05-20T05:35:41;5.78;;;5.18;;
64903;SDS011;51401;48.882;12.598;2023-05-20T05:38:07;5.55;;;5.05;;
64903;SDS011;51401;48.882;12.598;2023-05-20T05:40:33;5.70;;;5.10;;
64903;SDS011;51401;48.882;12.598;2023-05-20T05:42:59;5.82;;;5.22;;
64903;SDS011;51401;48.882;12.598;2023-05-20T05:45:24;5.53;;;5.03;;
64903;SDS011;51401;48.882;12.598;2023-05-20T05:47:49;7.05;;;5.18;;
64903;SDS011;51401;48.882;12.598;2023-05-20T05:50:15;5.50;;;4.95;;
64903;SDS011;51401;48.882;12.598;2023-05-20T05:52:40;5.75;;;5.18;;
64903;SDS011;51401;48.882;12.598;2023-05-20T05:55:06;6.70;;;6.03;;
64903;SDS011;51401;48.882;12.598;2023-05-20T05:57:32;5.95;;;5.38;;
64903;SDS011;51401;48.882;12.598;2023-05-20T05:59:57;5.60;;;5.05;;
64903;SDS011;51401;48.882;12.598;2023-05-20T06:02:23;6.50;;;5.85;;
64903;SDS011;51401;48.882;12.598;2023-05-20T06:04:48;5.65;;;5.07;;
64903;SDS011;51401;48.882;12.598;2023-05-20T06:07:14;6.03;;;5.07;;
64903;SDS011;51401;48.882;12.598;2023-05-20T06:09:39;6.15;;;5.50;;
64903;SDS011;51401;48.882;12.598;2023-05-20T06:12:04;5.60;;;4.90;;
64903;SDS011;51401;48.882;12.598;2023-05-20T06:14:30;6.90;;;5.60;;
64903;SDS011;51401;48.882;12.598;2023-05-20T06:16:56;6.10;;;5.53;;
64903;SDS011;51401;48.882;12.598;2023-05-20T06:19:21;5.80;;;4.93;;
64903;SDS011;51401;48.882;12.598;2023-05-20T06:21:47;6.95;;;5.65;;
64903;SDS011;51401;48.882;12.598;2023-05-20T06:24:12;5.80;;;5.20;;
64903;SDS011;51401;48.882;12.598;2023-05-20T06:26:37;5.53;;;4.97;;
64903;SDS011;51401;48.882;12.598;2023-05-20T06:29:02;5.47;;;4.97;;
64903;SDS011;51401;48.882;12.598;2023-05-20T06:31:28;5.95;;;5.35;;
64903;SDS011;51401;48.882;12.598;2023-05-20T06:33:54;6.40;;;5.32;;
64903;SDS011;51401;48.882;12.598;2023-05-20T06:36:19;6.68;;;5.68;;
64903;SDS011;51401;48.882;12.598;2023-05-20T06:38:45;5.65;;;5.05;;
64903;SDS011;51401;48.882;12.598;2023-05-20T06:41:10;6.05;;;5.32;;
64903;SDS011;51401;48.882;12.598;2023-05-20T06:43:36;6.00;;;5.40;;
64903;SDS011;51401;48.882;12.598;2023-05-20T06:46:01;6.23;;;5.53;;
64903;SDS011;51401;48.882;12.598;2023-05-20T06:48:26;6.18;;;5.57;;
64903;SDS011;51401;48.882;12.598;2023-05-20T06:50:52;5.72;;;5.22;;
64903;SDS011;51401;48.882;12.598;2023-05-20T06:53:17;6.38;;;5.50;;
64903;SDS011;51401;48.882;12.598;2023-05-20T06:55:42;6.03;;;5.43;;
64903;SDS011;51401;48.882;12.598;2023-05-20T06:58:07;7.00;;;5.90;;
64903;SDS011;51401;48.882;12.598;2023-05-20T07:00:33;6.23;;;5.70;;
64903;SDS011;51401;48.882;12.598;2023-05-20T07:02:58;6.55;;;5.90;;
64903;SDS011;51401;48.882;12.598;2023-05-20T07:05:23;7.53;;;6.83;;
64903;SDS011;51401;48.882;12.598;2023-05-20T07:07:49;7.50;;;6.68;;
64903;SDS011;51401;48.882;12.598;2023-05-20T07:10:15;6.32;;;5.70;;
64903;SDS011;51401;48.882;12.598;2023-05-20T07:12:40;8.55;;;5.68;;
64903;SDS011;51401;48.882;12.598;2023-05-20T07:15:06;8.88;;;6.25;;
64903;SDS011;51401;48.882;12.598;2023-05-20T07:17:32;8.07;;;6.32;;
64903;SDS011;51401;48.882;12.598;2023-05-20T07:19:57;6.93;;;6.07;;
64903;SDS011;51401;48.882;12.598;2023-05-20T07:22:22;6.73;;;6.10;;
64903;SDS011;51401;48.882;12.598;2023-05-20T07:24:47;9.67;;;6.40;;
64903;SDS011;51401;48.882;12.598;2023-05-20T07:27:13;7.20;;;6.50;;
64903;SDS011;51401;48.882;12.598;2023-05-20T07:29:38;7.30;;;6.28;;
64903;SDS011;51401;48.882;12.598;2023-05-20T07:32:04;6.90;;;6.20;;
64903;SDS011;51401;48.882;12.598;2023-05-20T07:34:29;6.35;;;5.72;;
64903;SDS011;51401;48.882;12.598;2023-05-20T07:36:55;7.95;;;6.40;;
64903;SDS011;51401;48.882;12.598;2023-05-20T07:39:21;6.57;;;5.88;;
64903;SDS011;51401;48.882;12.598;2023-05-20T07:41:47;7.82;;;6.55;;
64903;SDS011;51401;48.882;12.598;2023-05-20T07:44:13;7.55;;;5.57;;
64903;SDS011;51401;48.882;12.598;2023-05-20T07:46:38;7.43;;;6.32;;
64903;SDS011;51401;48.882;12.598;2023-05-20T07:49:04;6.18;;;5.53;;
64903;SDS011;51401;48.882;12.598;2023-05-20T07:51:29;6.22;;;5.63;;
64903;SDS011;51401;48.882;12.598;2023-05-20T07:53:55;6.25;;;5.65;;
64903;SDS011;51401;48.882;12.598;2023-05-20T07:56:21;9.02;;;6.20;;
64903;SDS011;51401;48.882;12.598;2023-05-20T07:58:53;6.85;;;5.85;;
64903;SDS011;51401;48.882;12.598;2023-05-20T08:01:22;7.07;;;6.38;;
64903;SDS011;51401;48.882;12.598;2023-05-20T08:03:48;6.50;;;5.90;;
64903;SDS011;51401;48.882;12.598;2023-05-20T08:06:13;6.30;;;5.72;;
64903;SDS011;51401;48.882;12.598;2023-05-20T08:08:38;6.73;;;5.93;;
64903;SDS011;51401;48.882;12.598;2023-05-20T08:11:05;6.35;;;5.75;;
64903;SDS011;51401;48.882;12.598;2023-05-20T08:13:31;6.43;;;5.82;;
64903;SDS011;51401;48.882;12.598;2023-05-20T08:15:57;6.47;;;5.80;;
64903;SDS011;51401;48.882;12.598;2023-05-20T08:18:22;6.70;;;6.00;;
64903;SDS011;51401;48.882;12.598;2023-05-20T08:20:47;6.15;;;5.50;;
64903;SDS011;51401;48.882;12.598;2023-05-20T08:23:13;6.45;;;5.63;;
64903;SDS011;51401;48.882;12.598;2023-05-20T08:25:38;7.25;;;5.30;;
64903;SDS011;51401;48.882;12.598;2023-05-20T08:28:03;6.32;;;5.72;;
64903;SDS011;51401;48.882;12.598;2023-05-20T08:30:30;6.03;;;5.25;;
64903;SDS011;51401;48.882;12.598;2023-05-20T08:32:57;5.65;;;5.05;;
64903;SDS011;51401;48.882;12.598;2023-05-20T08:35:22;6.57;;;5.07;;
64903;SDS011;51401;48.882;12.598;2023-05-20T08:37:48;5.95;;;5.00;;
64903;SDS011;51401;48.882;12.598;2023-05-20T08:40:13;6.65;;;5.40;;
64903;SDS011;51401;48.882;12.598;2023-05-20T08:42:39;5.05;;;4.45;;
64903;SDS011;51401;48.882;12.598;2023-05-20T08:45:06;5.40;;;4.90;;
64903;SDS011;51401;48.882;12.598;2023-05-20T08:47:35;5.63;;;4.78;;
64903;SDS011;51401;48.882;12.598;2023-05-20T08:50:02;5.75;;;5.18;;
64903;SDS011;51401;48.882;12.598;2023-05-20T08:52:28;5.13;;;4.63;;
64903;SDS011;51401;48.882;12.598;2023-05-20T08:57:23;6.13;;;5.05;;
64903;SDS011;51401;48.882;12.598;2023-05-20T08:59:49;5.68;;;5.07;;
64903;SDS011;51401;48.882;12.598;2023-05-20T09:02:15;6.88;;;4.93;;
64903;SDS011;51401;48.882;12.598;2023-05-20T09:04:41;6.78;;;4.80;;
64903;SDS011;51401;48.882;12.598;2023-05-20T09:07:06;5.38;;;4.85;;
64903;SDS011;51401;48.882;12.598;2023-05-20T09:09:32;6.03;;;4.70;;
64903;SDS011;51401;48.882;12.598;2023-05-20T09:11:59;5.90;;;5.10;;
64903;SDS011;51401;48.882;12.598;2023-05-20T09:14:25;5.38;;;4.63;;
64903;SDS011;51401;48.882;12.598;2023-05-20T09:16:52;5.88;;;5.28;;
64903;SDS011;51401;48.882;12.598;2023-05-20T09:19:19;5.63;;;5.00;;
64903;SDS011;51401;48.882;12.598;2023-05-20T09:21:46;5.95;;;5.30;;
64903;SDS011;51401;48.882;12.598;2023-05-20T09:24:11;5.53;;;4.97;;
64903;SDS011;51401;48.882;12.598;2023-05-20T09:26:37;5.53;;;5.03;;
64903;SDS011;51401;48.882;12.598;2023-05-20T09:29:02;5.57;;;4.97;;
64903;SDS011;51401;48.882;12.598;2023-05-20T09:31:32;5.95;;;5.13;;
64903;SDS011;51401;48.882;12.598;2023-05-20T09:34:01;7.18;;;5.35;;
64903;SDS011;51401;48.882;12.598;2023-05-20T09:36:27;5.70;;;5.10;;
64903;SDS011;51401;48.882;12.598;2023-05-20T09:38:55;6.35;;;5.00;;
64903;SDS011;51401;48.882;12.598;2023-05-20T09:41:25;7.45;;;5.10;;
64903;SDS011;51401;48.882;12.598;2023-05-20T09:44:10;5.57;;;4.78;;
64903;SDS011;51401;48.882;12.598;2023-05-20T09:46:40;5.53;;;4.90;;
64903;SDS011;51401;48.882;12.598;2023-05-20T09:49:06;6.20;;;5.18;;
64903;SDS011;51401;48.882;12.598;2023-05-20T09:51:32;5.93;;;5.28;;
64903;SDS011;51401;48.882;12.598;2023-05-20T09:53:58;5.93;;;5.20;;
64903;SDS011;51401;48.882;12.598;2023-05-20T09:56:24;5.40;;;4.65;;
64903;SDS011;51401;48.882;12.598;2023-05-20T09:58:50;5.78;;;4.90;;
64903;SDS011;51401;48.882;12.598;2023-05-20T10:01:22;5.35;;;4.72;;
64903;SDS011;51401;48.882;12.598;2023-05-20T10:03:47;5.40;;;4.90;;
64903;SDS011;51401;48.882;12.598;2023-05-20T10:06:27;5.68;;;5.07;;
64903;SDS011;51401;48.882;12.598;2023-05-20T10:12:33;6.20;;;5.22;;
64903;SDS011;51401;48.882;12.598;2023-05-20T10:15:43;7.47;;;5.75;;
64903;SDS011;51401;48.882;12.598;2023-05-20T10:20:47;6.00;;;5.40;;
64903;SDS011;51401;48.882;12.598;2023-05-20T10:23:23;6.53;;;5.77;;
64903;SDS011;51401;48.882;12.598;2023-05-20T10:25:52;5.82;;;5.18;;
64903;SDS011;51401;48.882;12.598;2023-05-20T10:30:54;6.43;;;5.40;;
64903;SDS011;51401;48.882;12.598;2023-05-20T10:33:20;7.60;;;5.50;;
64903;SDS011;51401;48.882;12.598;2023-05-20T10:35:52;5.60;;;5.07;;
64903;SDS011;51401;48.882;12.598;2023-05-20T10:38:18;6.00;;;4.95;;
64903;SDS011;51401;48.882;12.598;2023-05-20T10:40:45;6.47;;;5.50;;
64903;SDS011;51401;48.882;12.598;2023-05-20T10:43:11;6.15;;;5.32;;
64903;SDS011;51401;48.882;12.598;2023-05-20T10:45:47;7.43;;;5.03;;
64903;SDS011;51401;48.882;12.598;2023-05-20T10:48:24;5.32;;;4.78;;
64903;SDS011;51401;48.882;12.598;2023-05-20T10:50:54;6.75;;;5.65;;
64903;SDS011;51401;48.882;12.598;2023-05-20T10:53:21;7.90;;;5.35;;
64903;SDS011;51401;48.882;12.598;2023-05-20T10:55:49;5.72;;;5.20;;
64903;SDS011;51401;48.882;12.598;2023-05-20T10:58:15;9.48;;;6.18;;
64903;SDS011;51401;48.882;12.598;2023-05-20T11:00:41;8.05;;;5.40;;
64903;SDS011;51401;48.882;12.598;2023-05-20T11:03:07;5.78;;;5.13;;
64903;SDS011;51401;48.882;12.598;2023-05-20T11:05:33;6.05;;;5.45;;
64903;SDS011;51401;48.882;12.598;2023-05-20T11:08:03;6.10;;;5.50;;
64903;SDS011;51401;48.882;12.598;2023-05-20T11:10:30;6.45;;;5.20;;
64903;SDS011;51401;48.882;12.598;2023-05-20T11:12:57;6.15;;;5.55;;
64903;SDS011;51401;48.882;12.598;2023-05-20T11:15:22;6.50;;;5.63;;
64903;SDS011;51401;48.882;12.598;2023-05-20T11:17:55;6.93;;;5.15;;
64903;SDS011;51401;48.882;12.598;2023-05-20T11:20:22;6.45;;;5.45;;
64903;SDS011;51401;48.882;12.598;2023-05-20T11:22:55;5.82;;;5.22;;
64903;SDS011;51401;48.882;12.598;2023-05-20T11:25:21;6.18;;;5.03;;
64903;SDS011;51401;48.882;12.598;2023-05-20T11:27:49;6.43;;;5.45;;
64903;SDS011;51401;48.882;12.598;2023-05-20T11:30:16;5.95;;;5.13;;
64903;SDS011;51401;48.882;12.598;2023-05-20T11:32:58;5.63;;;5.13;;
64903;SDS011;51401;48.882;12.598;2023-05-20T11:35:25;7.13;;;5.80;;
64903;SDS011;51401;48.882;12.598;2023-05-20T11:37:57;5.85;;;5.25;;
64903;SDS011;51401;48.882;12.598;2023-05-20T11:40:26;6.45;;;5.10;;
64903;SDS011;51401;48.882;12.598;2023-05-20T11:42:52;6.47;;;5.68;;
64903;SDS011;51401;48.882;12.598;2023-05-20T11:45:22;5.72;;;5.15;;
64903;SDS011;51401;48.882;12.598;2023-05-20T11:47:57;8.00;;;5.88;;
64903;SDS011;51401;48.882;12.598;2023-05-20T11:50:23;7.82;;;6.03;;
64903;SDS011;51401;48.882;12.598;2023-05-20T11:52:54;7.45;;;5.28;;
64903;SDS011;51401;48.882;12.598;2023-05-20T11:55:21;7.35;;;5.47;;
64903;SDS011;51401;48.882;12.598;2023-05-20T11:57:46;7.63;;;5.43;;
64903;SDS011;51401;48.882;12.598;2023-05-20T12:00:12;6.23;;;5.10;;
64903;SDS011;51401;48.882;12.598;2023-05-20T12:02:37;8.70;;;6.30;;
64903;SDS011;51401;48.882;12.598;2023-05-20T12:05:02;6.00;;;5.50;;
64903;SDS011;51401;48.882;12.598;2023-05-20T12:07:28;7.00;;;5.40;;
64903;SDS011;51401;48.882;12.598;2023-05-20T12:09:53;7.37;;;5.27;;
64903;SDS011;51401;48.882;12.598;2023-05-20T12:12:18;7.83;;;5.77;;
64903;SDS011;51401;48.882;12.598;2023-05-20T12:14:44;6.45;;;5.38;;
64903;SDS011;51401;48.882;12.598;2023-05-20T12:17:09;6.20;;;5.57;;
64903;SDS011;51401;48.882;12.598;2023-05-20T12:19:34;6.17;;;5.27;;
64903;SDS011;51401;48.882;12.598;2023-05-20T12:22:00;7.70;;;5.93;;
64903;SDS011;51401;48.882;12.598;2023-05-20T12:24:26;6.53;;;5.45;;
64903;SDS011;51401;48.882;12.598;2023-05-20T12:26:51;7.10;;;5.50;;
64903;SDS011;51401;48.882;12.598;2023-05-20T12:29:16;5.90;;;5.03;;
64903;SDS011;51401;48.882;12.598;2023-05-20T12:31:42;6.60;;;5.68;;
64903;SDS011;51401;48.882;12.598;2023-05-20T12:34:07;6.03;;;5.37;;
64903;SDS011;51401;48.882;12.598;2023-05-20T12:36:32;5.80;;;5.30;;
64903;SDS011;51401;48.882;12.598;2023-05-20T12:38:57;6.50;;;5.90;;
64903;SDS011;51401;48.882;12.598;2023-05-20T12:41:23;6.37;;;5.53;;
64903;SDS011;51401;48.882;12.598;2023-05-20T12:43:48;7.07;;;6.00;;
64903;SDS011;51401;48.882;12.598;2023-05-20T12:46:13;8.48;;;5.50;;
64903;SDS011;51401;48.882;12.598;2023-05-20T12:48:38;6.97;;;5.97;;
64903;SDS011;51401;48.882;12.598;2023-05-20T12:51:04;7.10;;;5.88;;
64903;SDS011;51401;48.882;12.598;2023-05-20T12:53:32;6.45;;;5.32;;
64903;SDS011;51401;48.882;12.598;2023-05-20T12:55:57;7.03;;;5.67;;
64903;SDS011;51401;48.882;12.598;2023-05-20T12:58:23;6.23;;;5.63;;
64903;SDS011;51401;48.882;12.598;2023-05-20T13:00:48;6.37;;;5.47;;
64903;SDS011;51401;48.882;12.598;2023-05-20T13:03:13;5.72;;;5.20;;
64903;SDS011;51401;48.882;12.598;2023-05-20T13:05:39;6.13;;;5.53;;
64903;SDS011;51401;48.882;12.598;2023-05-20T13:08:04;6.53;;;5.47;;
64903;SDS011;51401;48.882;12.598;2023-05-20T13:10:29;7.33;;;5.37;;
64903;SDS011;51401;48.882;12.598;2023-05-20T13:12:55;5.95;;;5.22;;
64903;SDS011;51401;48.882;12.598;2023-05-20T13:15:20;6.57;;;5.22;;
64903;SDS011;51401;48.882;12.598;2023-05-20T13:17:45;7.73;;;6.30;;
64903;SDS011;51401;48.882;12.598;2023-05-20T13:20:11;6.53;;;5.78;;
64903;SDS011;51401;48.882;12.598;2023-05-20T13:22:37;7.30;;;5.80;;
64903;SDS011;51401;48.882;12.598;2023-05-20T13:25:02;7.10;;;5.53;;
64903;SDS011;51401;48.882;12.598;2023-05-20T13:27:28;7.32;;;5.30;;
64903;SDS011;51401;48.882;12.598;2023-05-20T13:29:53;5.93;;;5.10;;
64903;SDS011;51401;48.882;12.598;2023-05-20T13:32:18;6.17;;;5.37;;
64903;SDS011;51401;48.882;12.598;2023-05-20T13:34:44;8.67;;;5.70;;
64903;SDS011;51401;48.882;12.598;2023-05-20T13:37:09;6.28;;;5.68;;
64903;SDS011;51401;48.882;12.598;2023-05-20T13:39:34;9.07;;;6.37;;
64903;SDS011;51401;48.882;12.598;2023-05-20T13:42:00;6.63;;;5.70;;
64903;SDS011;51401;48.882;12.598;2023-05-20T13:44:25;7.65;;;5.70;;
64903;SDS011;51401;48.882;12.598;2023-05-20T13:46:50;6.40;;;5.33;;
64903;SDS011;51401;48.882;12.598;2023-05-20T13:49:16;7.20;;;5.80;;
64903;SDS011;51401;48.882;12.598;2023-05-20T13:51:41;6.07;;;5.47;;
64903;SDS011;51401;48.882;12.598;2023-05-20T13:54:08;6.13;;;5.53;;
64903;SDS011;51401;48.882;12.598;2023-05-20T13:56:33;6.50;;;5.80;;
64903;SDS011;51401;48.882;12.598;2023-05-20T13:58:58;6.18;;;5.57;;
64903;SDS011;51401;48.882;12.598;2023-05-20T14:01:24;6.03;;;5.43;;
64903;SDS011;51401;48.882;12.598;2023-05-20T14:03:49;6.28;;;5.32;;
64903;SDS011;51401;48.882;12.598;2023-05-20T14:06:14;6.63;;;5.70;;
64903;SDS011;51401;48.882;12.598;2023-05-20T14:08:42;6.93;;;5.97;;
64903;SDS011;51401;48.882;12.598;2023-05-20T14:11:09;7.40;;;5.80;;
64903;SDS011;51401;48.882;12.598;2023-05-20T14:13:34;7.10;;;6.20;;
64903;SDS011;51401;48.882;12.598;2023-05-20T14:16:00;5.80;;;5.20;;
64903;SDS011;51401;48.882;12.598;2023-05-20T14:18:25;6.80;;;5.53;;
64903;SDS011;51401;48.882;12.598;2023-05-20T14:20:50;6.68;;;5.72;;
64903;SDS011;51401;48.882;12.598;2023-05-20T14:23:15;7.23;;;6.53;;
64903;SDS011;51401;48.882;12.598;2023-05-20T14:25:41;7.55;;;5.47;;
64903;SDS011;51401;48.882;12.598;2023-05-20T14:28:06;8.30;;;5.97;;
64903;SDS011;51401;48.882;12.598;2023-05-20T14:30:32;7.55;;;6.35;;
64903;SDS011;51401;48.882;12.598;2023-05-20T14:32:57;7.75;;;5.85;;
64903;SDS011;51401;48.882;12.598;2023-05-20T14:35:22;6.20;;;5.60;;
64903;SDS011;51401;48.882;12.598;2023-05-20T14:37:47;8.27;;;6.20;;
64903;SDS011;51401;48.882;12.598;2023-05-20T14:40:13;6.55;;;5.95;;
64903;SDS011;51401;48.882;12.598;2023-05-20T14:42:38;6.82;;;5.97;;